Time;durP1;ratioP1;P1;durP2;ratioP2;P2;SDS_P1;SDS_P2;PMS_P1;PMS_P2;Temp;Humidity;BMP_temperature;BMP_pressure;BME280_temperature;BME280_humidity;BME280_pressure;Samples;Min_cycle;Max_cycle;Signal;HPM_P1;HPM_P2
2022/08/03 00:01:40;;;;;;;10.73;5.40;;;21.30;99.90;;;;;;5053780;28;20123;-83
2022/08/03 00:04:06;;;;;;;10.10;5.72;;;21.20;99.90;;;;;;5054303;28;20165;-83
2022/08/03 00:06:32;;;;;;;11.73;5.25;;;21.00;99.90;;;;;;5070870;28;20080;-83
2022/08/03 00:08:57;;;;;;;12.60;5.97;;;20.90;99.90;;;;;;5053539;28;20536;-83
2022/08/03 00:11:23;;;;;;;10.02;5.43;;;20.80;99.90;;;;;;5069820;28;20029;-83
2022/08/03 00:13:49;;;;;;;10.77;5.55;;;20.80;99.90;;;;;;5053879;28;20040;-83
2022/08/03 00:16:15;;;;;;;15.02;6.07;;;20.80;99.90;;;;;;5070576;28;20040;-83
2022/08/03 00:18:41;;;;;;;14.15;6.30;;;20.80;99.90;;;;;;5070477;28;20466;-83
2022/08/03 00:21:06;;;;;;;14.20;6.43;;;20.80;99.90;;;;;;5070164;28;20040;-83
2022/08/03 00:23:33;;;;;;;14.73;6.50;;;20.80;99.90;;;;;;5053529;28;20044;-83
2022/08/03 00:25:58;;;;;;;10.88;5.80;;;20.80;99.90;;;;;;5053758;28;20119;-83
2022/08/03 00:28:24;;;;;;;10.90;6.00;;;20.90;99.90;;;;;;5053524;28;20128;-83
2022/08/03 00:30:50;;;;;;;13.82;6.43;;;20.90;99.90;;;;;;5070078;28;20036;-83
2022/08/03 00:33:16;;;;;;;12.57;6.35;;;20.90;99.90;;;;;;5070233;28;20127;-83
2022/08/03 00:35:41;;;;;;;12.32;6.50;;;20.90;99.90;;;;;;5070256;28;20048;-83
2022/08/03 00:38:07;;;;;;;14.68;7.15;;;20.90;99.90;;;;;;5069968;28;20036;-83
2022/08/03 00:40:33;;;;;;;14.25;7.05;;;20.80;99.90;;;;;;5053487;28;20036;-83
2022/08/03 00:43:01;;;;;;;12.88;6.13;;;20.90;99.90;;;;;;5053560;28;20032;-83
2022/08/03 00:45:35;;;;;;;11.63;6.07;;;20.90;99.90;;;;;;5053310;28;20040;-83
2022/08/03 00:48:02;;;;;;;11.65;6.72;;;20.90;99.90;;;;;;5069994;28;20115;-83
2022/08/03 00:50:33;;;;;;;11.57;6.25;;;20.90;99.90;;;;;;5069870;28;20044;-83
2022/08/03 00:52:59;;;;;;;11.20;6.82;;;20.90;99.90;;;;;;5069716;28;20512;-83
2022/08/03 00:55:25;;;;;;;13.00;6.30;;;20.90;99.90;;;;;;5053311;28;20094;-83
2022/08/03 00:57:51;;;;;;;13.43;6.93;;;20.90;99.90;;;;;;5053586;28;20493;-83
2022/08/03 01:00:20;;;;;;;11.27;6.32;;;20.90;99.90;;;;;;5069636;28;20058;-82
2022/08/03 01:02:46;;;;;;;12.23;6.10;;;20.80;99.90;;;;;;5052463;28;20075;-83
2022/08/03 01:05:12;;;;;;;12.80;6.50;;;20.80;99.90;;;;;;5069716;28;20131;-83
2022/08/03 01:08:13;;;;;;;11.45;6.07;;;20.80;99.90;;;;;;5069839;28;20070;-83
2022/08/03 01:10:40;;;;;;;12.82;6.53;;;20.80;99.90;;;;;;5070163;28;20044;-83
2022/08/03 01:13:09;;;;;;;11.70;6.47;;;20.70;99.90;;;;;;5069752;28;20044;-83
2022/08/03 01:15:49;;;;;;;11.65;6.40;;;20.80;99.90;;;;;;5070889;28;20094;-82
2022/08/03 01:18:29;;;;;;;11.80;5.75;;;20.70;99.90;;;;;;5069784;28;20041;-83
2022/08/03 01:20:56;;;;;;;11.65;5.90;;;20.70;99.90;;;;;;5070553;28;20123;-83
2022/08/03 01:23:55;;;;;;;11.57;5.75;;;20.70;99.90;;;;;;5073808;28;20089;-83
2022/08/03 01:26:53;;;;;;;11.18;5.88;;;20.70;99.90;;;;;;5074129;28;20401;-83
2022/08/03 01:29:41;;;;;;;11.43;5.80;;;20.60;99.90;;;;;;5071411;28;20132;-83
2022/08/03 01:32:48;;;;;;;12.02;6.03;;;20.60;99.90;;;;;;5056616;28;20044;-83
2022/08/03 01:35:26;;;;;;;11.57;5.40;;;20.50;99.90;;;;;;5038148;28;20048;-82
2022/08/03 01:37:57;;;;;;;12.07;5.40;;;20.50;99.90;;;;;;5073620;28;20115;-83
2022/08/03 01:40:26;;;;;;;10.93;5.65;;;20.40;99.90;;;;;;5073124;28;20040;-83
2022/08/03 01:42:55;;;;;;;11.90;5.75;;;20.50;99.90;;;;;;5073357;28;20064;-83
2022/08/03 01:45:22;;;;;;;11.90;5.35;;;20.40;99.90;;;;;;5073552;28;20040;-82
2022/08/03 01:47:48;;;;;;;9.88;5.20;;;20.40;99.90;;;;;;5072898;28;20040;-83
2022/08/03 01:50:17;;;;;;;11.57;5.43;;;20.40;99.90;;;;;;5073232;28;20047;-83
2022/08/03 01:52:44;;;;;;;12.07;4.95;;;20.30;99.90;;;;;;5072781;28;20382;-83
2022/08/03 01:55:12;;;;;;;11.85;4.80;;;20.30;99.90;;;;;;5056378;28;20082;-83
2022/08/03 01:57:39;;;;;;;12.93;4.95;;;20.30;99.90;;;;;;5073133;28;20047;-83
2022/08/03 02:00:08;;;;;;;13.07;5.32;;;20.30;99.90;;;;;;5073136;28;20121;-83
2022/08/03 02:02:36;;;;;;;10.93;4.75;;;20.30;99.90;;;;;;5072772;28;20124;-83
2022/08/03 02:05:05;;;;;;;11.85;5.38;;;20.20;99.90;;;;;;5072609;28;20045;-83
2022/08/03 02:07:33;;;;;;;10.48;4.75;;;20.20;99.90;;;;;;5056114;28;20044;-82
2022/08/03 02:10:01;;;;;;;11.90;5.30;;;20.20;99.90;;;;;;5072792;28;20048;-82
2022/08/03 02:12:31;;;;;;;10.95;5.28;;;20.10;99.90;;;;;;5056152;28;20082;-83
2022/08/03 02:14:58;;;;;;;9.60;4.47;;;20.00;99.90;;;;;;5072772;28;20043;-82
2022/08/03 02:17:26;;;;;;;11.80;5.03;;;19.90;99.90;;;;;;5072773;28;20086;-82
2022/08/03 02:19:53;;;;;;;9.02;4.82;;;19.80;99.90;;;;;;5072940;28;20398;-82
2022/08/03 02:22:19;;;;;;;11.93;5.13;;;19.80;99.90;;;;;;5072327;28;20133;-82
2022/08/03 02:24:45;;;;;;;10.73;4.70;;;19.70;99.90;;;;;;5072990;28;20048;-82
2022/08/03 02:27:21;;;;;;;10.57;4.65;;;19.80;99.90;;;;;;5072646;28;20036;-82
2022/08/03 02:29:52;;;;;;;10.27;4.97;;;19.70;99.90;;;;;;5072705;28;20044;-82
2022/08/03 02:32:24;;;;;;;11.02;4.50;;;19.70;99.90;;;;;;5054703;28;20033;-82
2022/08/03 02:34:53;;;;;;;10.27;4.50;;;19.70;99.90;;;;;;5072705;28;20048;-82
2022/08/03 02:37:23;;;;;;;11.35;5.20;;;19.70;99.90;;;;;;5072824;28;20055;-82
2022/08/03 02:39:52;;;;;;;12.27;4.45;;;19.70;99.90;;;;;;5072421;28;20036;-82
2022/08/03 02:42:20;;;;;;;12.20;4.50;;;19.70;99.90;;;;;;5072062;28;20037;-82
2022/08/03 02:44:48;;;;;;;12.38;4.70;;;19.70;99.90;;;;;;5072256;28;20082;-83
2022/08/03 02:47:15;;;;;;;12.68;4.90;;;19.80;99.90;;;;;;5072027;28;20051;-82
2022/08/03 02:49:44;;;;;;;13.95;5.25;;;19.70;99.90;;;;;;5072071;28;20075;-83
2022/08/03 02:52:11;;;;;;;12.15;4.97;;;19.70;99.90;;;;;;5071808;28;20036;-83
2022/08/03 02:54:37;;;;;;;10.98;4.60;;;19.80;99.90;;;;;;5072052;28;20405;-82
2022/08/03 02:57:06;;;;;;;13.77;5.07;;;19.70;99.90;;;;;;5072320;28;20127;-82
2022/08/03 02:59:33;;;;;;;11.98;4.68;;;19.70;99.90;;;;;;5072112;28;20480;-82
2022/08/03 03:01:59;;;;;;;11.20;4.18;;;19.70;99.90;;;;;;5071495;28;20049;-82
2022/08/03 03:04:27;;;;;;;10.35;4.32;;;19.60;99.90;;;;;;5071982;28;20064;-82
2022/08/03 03:06:53;;;;;;;11.43;4.35;;;19.60;99.90;;;;;;5055085;28;20444;-83
2022/08/03 03:09:20;;;;;;;12.48;4.43;;;19.60;99.90;;;;;;5071969;28;20037;-83
2022/08/03 03:11:49;;;;;;;11.13;4.45;;;19.60;99.90;;;;;;5071474;28;20038;-82
2022/08/03 03:14:16;;;;;;;11.50;4.10;;;19.50;99.90;;;;;;5071792;28;20082;-83
2022/08/03 03:16:44;;;;;;;11.20;4.10;;;19.50;99.90;;;;;;5071681;28;20076;-82
2022/08/03 03:19:11;;;;;;;11.35;4.07;;;19.50;99.90;;;;;;5071464;28;20040;-82
2022/08/03 03:21:38;;;;;;;11.32;3.53;;;19.50;99.90;;;;;;5071435;28;20067;-82
2022/08/03 03:24:05;;;;;;;13.23;3.65;;;19.50;99.90;;;;;;5054800;28;20098;-82
2022/08/03 03:26:31;;;;;;;14.20;4.32;;;19.50;99.90;;;;;;5071814;28;20509;-82
2022/08/03 03:28:57;;;;;;;12.30;3.58;;;19.40;99.90;;;;;;5054465;28;20041;-82
2022/08/03 03:31:23;;;;;;;14.10;4.30;;;19.40;99.90;;;;;;5071232;28;20090;-82
2022/08/03 03:33:49;;;;;;;11.95;3.70;;;19.40;99.90;;;;;;5054874;28;20036;-83
2022/08/03 03:36:15;;;;;;;11.45;4.07;;;19.40;99.90;;;;;;5071271;28;20048;-83
2022/08/03 03:38:40;;;;;;;10.85;3.55;;;19.40;99.90;;;;;;5071229;28;20036;-82
2022/08/03 03:41:06;;;;;;;13.85;3.83;;;19.30;99.90;;;;;;5054581;28;20131;-83
2022/08/03 03:43:33;;;;;;;10.90;3.88;;;19.30;99.90;;;;;;5070869;28;20044;-83
2022/08/03 03:45:59;;;;;;;10.70;3.47;;;19.30;99.90;;;;;;5071375;28;20036;-83
2022/08/03 03:48:25;;;;;;;11.75;3.95;;;19.30;99.90;;;;;;5070691;28;20123;-82
2022/08/03 03:50:52;;;;;;;15.38;3.97;;;19.30;99.90;;;;;;5070700;28;20119;-82
2022/08/03 03:53:18;;;;;;;10.00;3.97;;;19.30;99.90;;;;;;5054211;28;20036;-82
2022/08/03 03:55:43;;;;;;;12.45;4.35;;;19.30;99.90;;;;;;5070809;28;20040;-83
2022/08/03 03:58:09;;;;;;;10.00;4.45;;;19.30;99.90;;;;;;5054163;28;20036;-83
2022/08/03 04:00:34;;;;;;;10.65;3.47;;;19.30;99.90;;;;;;5070681;28;20123;-82
2022/08/03 04:03:00;;;;;;;11.93;4.03;;;19.30;99.90;;;;;;5070472;28;20037;-83
2022/08/03 04:11:37;;;;;;;10.68;3.58;;;19.30;99.90;;;;;;5070282;28;20041;-82
2022/08/03 04:14:13;;;;;;;11.27;4.05;;;19.30;99.90;;;;;;5050207;28;20516;-83
2022/08/03 04:16:41;;;;;;;11.63;3.78;;;19.30;99.90;;;;;;5053618;28;20036;-82
2022/08/03 04:19:10;;;;;;;9.98;3.90;;;19.30;99.90;;;;;;5053564;28;20052;-83
2022/08/03 04:21:42;;;;;;;11.48;4.43;;;19.30;99.90;;;;;;5069784;28;20036;-83
2022/08/03 04:24:10;;;;;;;10.32;4.75;;;19.30;99.90;;;;;;5053777;28;20044;-82
2022/08/03 04:26:40;;;;;;;13.27;4.63;;;19.30;99.90;;;;;;5070370;28;20040;-82
2022/08/03 04:29:08;;;;;;;11.35;5.00;;;19.40;99.90;;;;;;5070213;28;20086;-82
2022/08/03 04:31:35;;;;;;;14.43;4.75;;;19.40;99.90;;;;;;5069736;28;20056;-82
2022/08/03 04:34:01;;;;;;;11.88;4.70;;;19.40;99.90;;;;;;5070199;28;20037;-82
2022/08/03 04:36:31;;;;;;;15.98;4.15;;;19.40;99.90;;;;;;5070207;28;20485;-82
2022/08/03 04:39:05;;;;;;;11.32;4.53;;;19.40;99.90;;;;;;5070175;28;20043;-82
2022/08/03 04:41:32;;;;;;;11.10;4.78;;;19.40;99.90;;;;;;5053364;28;20582;-83
2022/08/03 04:44:00;;;;;;;11.43;4.40;;;19.40;99.90;;;;;;5053228;28;20047;-82
2022/08/03 04:46:30;;;;;;;13.50;4.45;;;19.40;99.90;;;;;;5069999;28;20076;-83
2022/08/03 04:48:57;;;;;;;11.23;4.22;;;19.50;99.90;;;;;;5053581;28;20390;-83
2022/08/03 04:51:23;;;;;;;11.38;4.78;;;19.50;99.90;;;;;;5069689;28;20094;-82
2022/08/03 04:53:49;;;;;;;13.18;4.53;;;19.50;99.90;;;;;;5070008;28;20040;-82
2022/08/03 04:56:14;;;;;;;12.20;4.00;;;19.50;99.90;;;;;;5069187;28;20044;-83
2022/08/03 04:58:40;;;;;;;10.82;5.03;;;19.50;99.90;;;;;;5070178;28;20040;-83
2022/08/03 05:01:06;;;;;;;13.70;4.63;;;19.50;99.90;;;;;;5069869;28;20228;-83
2022/08/03 05:03:31;;;;;;;11.75;4.57;;;19.50;99.90;;;;;;5069913;28;20516;-83
2022/08/03 05:05:57;;;;;;;14.20;5.07;;;19.60;99.90;;;;;;5053398;28;20043;-82
2022/08/03 05:08:23;;;;;;;15.23;5.07;;;19.60;99.90;;;;;;5069984;28;20307;-82
2022/08/03 05:10:49;;;;;;;11.02;4.70;;;19.60;99.90;;;;;;5052842;28;20040;-82
2022/08/03 05:13:14;;;;;;;12.93;5.35;;;19.60;99.90;;;;;;5068630;28;20032;-83
2022/08/03 05:15:43;;;;;;;11.77;5.05;;;19.60;99.90;;;;;;5069212;28;20051;-81
2022/08/03 05:18:09;;;;;;;13.63;4.75;;;19.70;99.90;;;;;;5060292;28;20175;-80
2022/08/03 05:20:34;;;;;;;11.65;5.15;;;19.70;99.90;;;;;;5070027;28;20528;-82
2022/08/03 05:23:02;;;;;;;11.27;5.22;;;19.70;99.90;;;;;;5069473;28;20040;-82
2022/08/03 05:25:28;;;;;;;14.77;5.35;;;19.70;99.90;;;;;;5047807;28;20044;-82
2022/08/03 05:27:54;;;;;;;13.25;4.90;;;19.80;99.90;;;;;;5052973;28;20039;-82
2022/08/03 05:30:20;;;;;;;13.50;5.25;;;19.80;99.90;;;;;;5069566;28;20037;-82
2022/08/03 05:32:45;;;;;;;13.95;5.50;;;19.80;99.90;;;;;;5069436;28;20083;-82
2022/08/03 05:35:11;;;;;;;13.15;5.65;;;19.80;99.90;;;;;;5069962;28;20072;-82
2022/08/03 05:37:36;;;;;;;20.75;6.20;;;19.80;99.90;;;;;;5069684;28;20057;-83
2022/08/03 05:40:03;;;;;;;14.55;5.70;;;19.90;99.90;;;;;;5069084;28;20040;-82
2022/08/03 05:42:29;;;;;;;16.40;5.70;;;19.90;99.90;;;;;;5069433;28;20181;-82
2022/08/03 05:44:54;;;;;;;13.23;4.95;;;19.90;99.90;;;;;;5069706;28;20544;-82
2022/08/03 05:47:20;;;;;;;15.18;5.55;;;20.00;99.90;;;;;;5069421;28;20374;-82
2022/08/03 05:49:45;;;;;;;14.27;5.45;;;20.00;99.90;;;;;;5069472;28;20546;-82
2022/08/03 05:52:11;;;;;;;14.77;6.03;;;20.00;99.90;;;;;;5069160;28;20032;-82
2022/08/03 05:54:37;;;;;;;14.07;5.50;;;20.10;99.90;;;;;;5069239;28;20049;-83
2022/08/03 05:57:02;;;;;;;12.07;6.10;;;20.10;99.90;;;;;;5069592;28;20040;-83
2022/08/03 05:59:28;;;;;;;12.77;6.07;;;20.20;99.90;;;;;;5069408;28;20042;-83
2022/08/03 06:01:53;;;;;;;13.95;6.25;;;20.20;99.90;;;;;;5068886;28;20114;-83
2022/08/03 06:04:19;;;;;;;13.23;6.45;;;20.30;99.90;;;;;;5069369;28;20105;-83
2022/08/03 06:06:45;;;;;;;16.95;6.43;;;20.30;99.90;;;;;;5052703;28;20036;-83
2022/08/03 06:09:10;;;;;;;13.10;5.78;;;20.30;99.90;;;;;;5053266;28;20099;-82
2022/08/03 06:11:36;;;;;;;14.15;5.90;;;20.40;99.90;;;;;;5071235;28;20401;-83
2022/08/03 06:14:02;;;;;;;14.98;5.90;;;20.40;99.90;;;;;;5069722;28;20060;-83
2022/08/03 06:16:28;;;;;;;14.07;6.07;;;20.40;99.90;;;;;;5073094;28;20370;-83
2022/08/03 06:18:53;;;;;;;13.75;5.68;;;20.50;99.90;;;;;;5072693;28;20524;-83
2022/08/03 06:21:19;;;;;;;15.63;6.38;;;20.50;99.90;;;;;;5055601;28;20048;-82
2022/08/03 06:23:46;;;;;;;14.35;6.03;;;20.60;99.90;;;;;;5073842;28;20050;-83
2022/08/03 06:26:12;;;;;;;14.15;5.60;;;20.60;99.90;;;;;;5072726;28;20344;-83
2022/08/03 06:28:37;;;;;;;13.63;5.90;;;20.60;99.90;;;;;;5072460;28;20076;-83
2022/08/03 06:31:03;;;;;;;13.05;5.68;;;20.60;99.90;;;;;;5055552;28;20389;-83
2022/08/03 06:33:29;;;;;;;14.63;5.30;;;20.70;99.90;;;;;;5072634;28;20036;-83
2022/08/03 06:35:54;;;;;;;13.82;5.60;;;20.70;99.90;;;;;;5055866;28;20040;-83
2022/08/03 06:38:20;;;;;;;15.90;5.85;;;20.70;99.90;;;;;;5072318;28;20051;-83
2022/08/03 06:40:46;;;;;;;12.18;5.88;;;20.80;99.90;;;;;;5072521;28;20345;-82
2022/08/03 06:43:14;;;;;;;12.30;5.55;;;20.80;99.90;;;;;;5055393;28;20546;-83
2022/08/03 06:45:40;;;;;;;16.25;5.53;;;20.90;99.90;;;;;;5054975;28;20119;-83
2022/08/03 06:48:08;;;;;;;13.63;5.30;;;21.00;99.90;;;;;;5068965;28;20073;-83
2022/08/03 06:50:35;;;;;;;13.73;5.18;;;21.00;99.90;;;;;;5072165;28;20158;-83
2022/08/03 06:53:02;;;;;;;14.90;5.13;;;21.10;99.90;;;;;;5055257;28;20032;-83
2022/08/03 06:55:27;;;;;;;14.70;5.55;;;21.10;99.90;;;;;;5050989;28;20036;-83
2022/08/03 06:57:53;;;;;;;13.98;4.50;;;21.20;99.90;;;;;;5045167;28;20037;-84
2022/08/03 07:00:19;;;;;;;13.30;5.53;;;21.20;99.90;;;;;;5060691;28;20032;-83
2022/08/03 07:02:45;;;;;;;13.90;4.63;;;21.20;99.90;;;;;;5055264;28;20032;-83
2022/08/03 07:05:12;;;;;;;16.48;4.80;;;21.20;99.90;;;;;;5055257;28;20044;-84
2022/08/03 07:07:38;;;;;;;14.13;5.32;;;21.20;99.90;;;;;;5071638;28;20040;-84
2022/08/03 07:10:05;;;;;;;16.52;5.50;;;21.30;99.90;;;;;;5055066;28;20174;-83
2022/08/03 07:12:31;;;;;;;18.15;5.30;;;21.30;99.90;;;;;;5071508;28;20041;-84
2022/08/03 07:14:58;;;;;;;16.42;5.40;;;21.40;99.90;;;;;;5071754;28;20130;-83
2022/08/03 07:17:23;;;;;;;16.50;5.38;;;21.50;99.90;;;;;;5071675;28;20036;-83
2022/08/03 07:19:49;;;;;;;14.20;4.70;;;21.60;99.90;;;;;;5071107;28;20044;-83
2022/08/03 07:22:14;;;;;;;16.35;5.00;;;21.60;99.90;;;;;;5071345;28;20043;-83
2022/08/03 07:24:43;;;;;;;12.55;4.85;;;21.70;99.90;;;;;;5072847;28;20032;-84
2022/08/03 07:27:09;;;;;;;17.88;5.13;;;21.80;99.90;;;;;;5071768;28;20141;-84
2022/08/03 07:29:35;;;;;;;14.25;4.22;;;21.70;99.90;;;;;;5071407;28;20500;-84
2022/08/03 07:32:01;;;;;;;17.88;5.30;;;21.70;99.90;;;;;;5070964;28;20090;-84
2022/08/03 07:34:27;;;;;;;16.80;4.72;;;21.80;99.90;;;;;;5072596;28;20086;-84
2022/08/03 07:36:52;;;;;;;18.92;5.13;;;21.80;99.90;;;;;;5071158;28;20037;-83
2022/08/03 07:39:18;;;;;;;13.30;4.43;;;21.90;99.90;;;;;;5071369;28;20036;-83
2022/08/03 07:41:44;;;;;;;17.75;5.13;;;21.90;99.90;;;;;;5054068;28;20037;-83
2022/08/03 07:44:09;;;;;;;16.02;4.82;;;22.00;99.90;;;;;;5054661;28;20055;-83
2022/08/03 07:46:35;;;;;;;14.13;4.50;;;22.10;99.90;;;;;;5070846;28;20040;-83
2022/08/03 07:49:00;;;;;;;16.70;4.97;;;22.10;99.90;;;;;;5054389;28;20036;-83
2022/08/03 07:51:26;;;;;;;13.95;4.53;;;22.20;99.90;;;;;;5054112;28;20044;-84
2022/08/03 07:53:52;;;;;;;13.25;4.72;;;22.30;99.90;;;;;;5070963;28;20127;-84
2022/08/03 07:56:18;;;;;;;15.80;4.63;;;22.30;99.90;;;;;;5070800;28;20037;-84
2022/08/03 07:58:44;;;;;;;18.83;4.68;;;22.40;99.90;;;;;;5054594;28;20037;-84
2022/08/03 08:01:09;;;;;;;16.23;4.43;;;22.50;99.90;;;;;;5053872;28;20064;-83
2022/08/03 08:03:35;;;;;;;20.77;5.03;;;22.60;99.90;;;;;;5070726;28;20036;-83
2022/08/03 08:06:00;;;;;;;15.05;4.70;;;22.60;99.90;;;;;;5070504;28;20065;-83
2022/08/03 08:08:26;;;;;;;16.02;4.70;;;22.70;99.90;;;;;;5053992;28;20048;-84
2022/08/03 08:10:51;;;;;;;18.52;5.28;;;22.70;99.90;;;;;;5070348;28;20306;-84
2022/08/03 08:13:17;;;;;;;14.25;4.78;;;22.80;99.90;;;;;;5070442;28;20045;-83
2022/08/03 08:15:43;;;;;;;17.40;5.93;;;22.80;99.90;;;;;;5070547;28;20036;-83
2022/08/03 08:18:08;;;;;;;15.40;5.05;;;22.90;99.90;;;;;;5070723;28;20068;-84
2022/08/03 08:20:37;;;;;;;15.38;5.32;;;22.90;99.90;;;;;;5070168;28;20048;-83
2022/08/03 08:23:05;;;;;;;15.93;5.65;;;22.90;99.90;;;;;;5070196;28;20405;-84
2022/08/03 08:25:32;;;;;;;17.20;5.22;;;23.00;99.90;;;;;;5070432;28;20044;-84
2022/08/03 08:28:02;;;;;;;16.90;5.05;;;23.10;99.90;;;;;;5053349;28;20044;-83
2022/08/03 08:30:28;;;;;;;18.13;5.65;;;23.20;99.90;;;;;;5069669;28;20044;-83
2022/08/03 08:32:53;;;;;;;16.92;4.90;;;23.30;99.90;;;;;;5053260;28;20413;-84
2022/08/03 08:35:19;;;;;;;17.20;5.25;;;23.30;99.90;;;;;;5070410;28;20040;-84
2022/08/03 08:37:45;;;;;;;20.48;4.88;;;23.40;99.90;;;;;;5053585;28;20076;-83
2022/08/03 08:40:12;;;;;;;18.25;5.40;;;23.40;99.90;;;;;;5070428;28;20505;-83
2022/08/03 08:42:42;;;;;;;16.90;4.95;;;23.40;99.90;;;;;;5069503;28;20124;-83
2022/08/03 08:45:10;;;;;;;19.08;5.03;;;23.40;99.90;;;;;;5053813;28;20528;-83
2022/08/03 08:47:39;;;;;;;18.20;5.53;;;23.50;99.90;;;;;;5053528;28;20401;-84
2022/08/03 08:50:07;;;;;;;18.58;4.90;;;23.60;99.90;;;;;;5070103;28;20068;-84
2022/08/03 08:52:34;;;;;;;17.65;4.65;;;23.60;99.90;;;;;;5069644;28;20043;-83
2022/08/03 08:55:03;;;;;;;15.63;4.60;;;23.60;99.90;;;;;;5053285;28;20127;-84
2022/08/03 08:57:33;;;;;;;15.65;5.00;;;23.70;99.90;;;;;;5069921;28;20033;-84
2022/08/03 09:00:00;;;;;;;21.55;4.82;;;23.80;99.90;;;;;;5053383;28;20044;-83
2022/08/03 09:02:29;;;;;;;17.50;5.07;;;23.90;99.90;;;;;;5052882;28;20044;-83
2022/08/03 09:04:55;;;;;;;17.65;4.97;;;23.80;99.90;;;;;;5053049;28;20043;-83
2022/08/03 09:07:21;;;;;;;17.83;4.47;;;23.90;99.90;;;;;;5069896;28;20094;-84
2022/08/03 09:09:47;;;;;;;18.50;4.35;;;24.00;99.90;;;;;;5069480;28;20052;-84
2022/08/03 09:12:13;;;;;;;17.33;4.82;;;24.10;99.90;;;;;;5052857;28;20072;-84
2022/08/03 09:14:40;;;;;;;16.65;3.72;;;24.20;99.90;;;;;;5053164;28;20036;-84
2022/08/03 09:17:05;;;;;;;17.70;4.45;;;24.20;99.90;;;;;;5069761;28;20090;-84
2022/08/03 09:19:33;;;;;;;15.77;4.88;;;24.30;99.90;;;;;;5069854;28;20033;-84
2022/08/03 09:22:14;;;;;;;17.17;4.20;;;24.40;99.90;;;;;;5052461;28;20536;-84
2022/08/03 09:25:02;;;;;;;16.52;4.15;;;24.40;99.90;;;;;;5069731;28;20123;-84
2022/08/03 09:27:28;;;;;;;15.35;4.32;;;24.50;99.90;;;;;;5053148;28;20076;-84
2022/08/03 09:29:54;;;;;;;18.65;4.30;;;24.50;99.90;;;;;;5069640;28;20032;-83
2022/08/03 09:32:21;;;;;;;16.45;4.60;;;24.60;99.90;;;;;;5069262;28;20066;-84
2022/08/03 09:34:48;;;;;;;19.92;4.90;;;24.70;99.90;;;;;;5069451;28;20564;-84
2022/08/03 09:37:16;;;;;;;17.92;5.15;;;24.70;99.90;;;;;;5063752;28;20077;-84
2022/08/03 09:39:42;;;;;;;17.17;4.07;;;24.80;99.90;;;;;;5043685;28;20037;-84
2022/08/03 09:42:12;;;;;;;14.50;3.70;;;24.80;99.90;;;;;;5058935;28;20037;-84
2022/08/03 09:44:46;;;;;;;18.02;4.38;;;24.90;99.90;;;;;;5053440;28;20421;-84
2022/08/03 09:47:26;;;;;;;14.40;3.78;;;25.00;99.90;;;;;;5056427;28;20400;-84
2022/08/03 09:50:00;;;;;;;15.77;3.97;;;25.10;99.90;;;;;;5073326;28;20558;-84
2022/08/03 09:52:35;;;;;;;15.43;4.20;;;25.20;99.90;;;;;;5072878;28;20558;-84
2022/08/03 09:55:06;;;;;;;15.38;4.05;;;25.30;99.90;;;;;;5073191;28;20032;-84
2022/08/03 09:57:32;;;;;;;17.52;4.32;;;25.40;99.90;;;;;;5072996;28;20036;-84
2022/08/03 10:00:11;;;;;;;16.98;4.10;;;25.40;99.90;;;;;;5073225;28;20037;-84
2022/08/03 10:02:37;;;;;;;16.25;3.88;;;25.50;99.90;;;;;;5072766;28;20082;-84
2022/08/03 10:05:04;;;;;;;17.67;3.90;;;25.60;99.90;;;;;;5056188;28;20037;-84
2022/08/03 10:07:29;;;;;;;15.70;3.67;;;25.60;99.90;;;;;;5072955;28;20509;-84
2022/08/03 10:10:00;;;;;;;17.38;3.85;;;25.70;99.90;;;;;;5056181;28;20047;-84
2022/08/03 10:12:26;;;;;;;14.50;3.45;;;25.80;99.90;;;;;;5072626;28;20501;-84
2022/08/03 10:14:54;;;;;;;14.30;3.53;;;25.90;99.90;;;;;;5073126;28;20492;-84
2022/08/03 10:17:21;;;;;;;13.10;3.88;;;25.90;99.90;;;;;;5056031;28;20036;-84
2022/08/03 10:19:47;;;;;;;16.85;3.92;;;26.00;99.90;;;;;;5072613;28;20515;-84
2022/08/03 10:22:17;;;;;;;17.23;3.55;;;26.00;99.90;;;;;;5055610;28;20044;-84
2022/08/03 10:24:58;;;;;;;19.55;4.35;;;26.10;99.90;;;;;;5072462;28;20090;-84
2022/08/03 10:27:25;;;;;;;14.38;3.83;;;26.20;99.90;;;;;;5072589;28;20040;-84
2022/08/03 10:29:54;;;;;;;17.13;3.47;;;26.30;99.90;;;;;;5072563;28;20409;-84
2022/08/03 10:32:38;;;;;;;16.05;4.00;;;26.40;99.90;;;;;;5055675;28;20036;-83
2022/08/03 10:35:13;;;;;;;14.25;3.65;;;26.50;99.90;;;;;;5072714;28;20470;-84
2022/08/03 10:37:44;;;;;;;14.23;3.92;;;26.60;99.90;;;;;;5072413;28;20508;-84
2022/08/03 10:40:15;;;;;;;16.17;3.50;;;26.60;99.90;;;;;;5071646;28;20037;-84
2022/08/03 10:42:43;;;;;;;15.52;3.58;;;26.70;99.90;;;;;;5055042;28;20067;-84
2022/08/03 10:45:21;;;;;;;18.40;4.03;;;26.80;99.90;;;;;;5035666;28;20069;-84
2022/08/03 10:47:48;;;;;;;16.73;3.97;;;26.80;99.50;;;;;;5052121;28;20056;-84
2022/08/03 10:50:14;;;;;;;18.13;3.75;;;26.90;99.90;;;;;;5035518;28;20581;-84
2022/08/03 10:52:53;;;;;;;15.50;3.38;;;27.00;99.90;;;;;;5051413;28;20398;-84
2022/08/03 10:58:36;;;;;;;14.48;3.22;;;27.20;97.80;;;;;;5052046;28;20040;-84
2022/08/03 11:01:10;;;;;;;15.52;3.60;;;27.30;94.80;;;;;;5041221;28;20103;-84
2022/08/03 11:03:51;;;;;;;16.63;3.85;;;27.20;93.80;;;;;;5052313;28;20060;-84
2022/08/03 11:06:19;;;;;;;17.58;4.00;;;27.30;98.90;;;;;;5052261;28;20517;-84
2022/08/03 11:08:46;;;;;;;18.05;3.90;;;27.40;99.10;;;;;;5051683;28;20041;-84
2022/08/03 11:11:17;;;;;;;14.20;3.17;;;27.50;95.50;;;;;;5051789;28;20490;-84
2022/08/03 11:14:03;;;;;;;17.45;3.67;;;27.50;93.30;;;;;;5035252;28;20409;-84
2022/08/03 11:16:33;;;;;;;13.13;3.65;;;27.50;91.70;;;;;;5051653;28;20041;-84
2022/08/03 11:19:01;;;;;;;16.20;3.40;;;27.60;93.30;;;;;;5051649;28;20040;-84
2022/08/03 11:21:51;;;;;;;16.67;3.58;;;27.70;93.40;;;;;;5034472;28;20087;-84
2022/08/03 11:24:35;;;;;;;17.13;3.78;;;27.70;94.70;;;;;;5051610;28;20036;-84
2022/08/03 11:27:23;;;;;;;15.45;3.10;;;27.90;92.90;;;;;;5051548;28;20047;-84
2022/08/03 11:29:57;;;;;;;15.43;3.40;;;27.90;88.30;;;;;;5051505;28;20044;-84
2022/08/03 11:32:42;;;;;;;18.30;3.58;;;27.90;94.00;;;;;;5052261;28;20037;-84
2022/08/03 11:35:22;;;;;;;14.27;3.30;;;28.10;91.50;;;;;;5034786;28;20049;-84
2022/08/03 11:37:56;;;;;;;13.48;3.42;;;28.10;92.90;;;;;;5051533;28;20406;-84
2022/08/03 11:40:35;;;;;;;18.05;4.13;;;28.20;91.30;;;;;;5035015;28;20045;-84
2022/08/03 11:43:02;;;;;;;14.00;3.50;;;28.30;91.70;;;;;;5034284;28;20090;-84
2022/08/03 11:45:30;;;;;;;15.38;3.28;;;28.30;84.70;;;;;;5051095;28;20049;-84
2022/08/03 11:47:57;;;;;;;17.48;3.20;;;28.40;79.80;;;;;;5034573;28;20041;-84
2022/08/03 11:50:23;;;;;;;17.60;3.35;;;28.50;81.60;;;;;;5033734;28;20033;-84
2022/08/03 11:52:50;;;;;;;17.40;3.40;;;28.60;85.90;;;;;;5058152;28;20123;-84
2022/08/03 11:55:20;;;;;;;16.35;3.40;;;28.60;78.70;;;;;;5038978;28;20051;-84
2022/08/03 11:57:47;;;;;;;12.20;2.63;;;28.70;77.20;;;;;;5066690;28;20055;-84
2022/08/03 12:00:27;;;;;;;14.25;3.17;;;28.70;75.60;;;;;;5053042;28;20439;-84
2022/08/03 12:02:58;;;;;;;13.82;2.90;;;28.80;81.20;;;;;;5068659;28;20367;-84
2022/08/03 12:05:46;;;;;;;16.58;3.45;;;28.90;81.30;;;;;;5068449;28;20047;-84
2022/08/03 12:08:15;;;;;;;14.50;3.35;;;29.00;78.20;;;;;;5053094;28;20047;-84
2022/08/03 12:10:47;;;;;;;16.92;4.05;;;29.00;72.50;;;;;;5069410;28;20131;-84
2022/08/03 12:13:12;;;;;;;13.40;3.05;;;29.10;69.50;;;;;;5069419;28;20177;-84
2022/08/03 12:15:38;;;;;;;16.48;3.35;;;29.10;67.90;;;;;;5069909;28;20132;-84
2022/08/03 12:18:15;;;;;;;17.40;3.25;;;29.10;73.90;;;;;;5070733;28;20028;-84
2022/08/03 12:20:41;;;;;;;14.32;3.00;;;29.20;67.30;;;;;;5070579;28;20067;-84
2022/08/03 12:23:08;;;;;;;17.52;3.67;;;29.20;67.40;;;;;;5070302;28;20394;-84
2022/08/03 12:25:35;;;;;;;16.40;3.00;;;29.30;68.50;;;;;;5053867;28;20037;-84
2022/08/03 12:28:09;;;;;;;14.80;3.15;;;29.30;66.70;;;;;;5070131;28;20068;-84
2022/08/03 12:30:37;;;;;;;18.27;3.33;;;29.40;69.60;;;;;;5070529;28;20068;-84
2022/08/03 12:33:18;;;;;;;13.95;3.08;;;29.50;66.40;;;;;;5069971;28;20040;-84
2022/08/03 12:35:49;;;;;;;13.43;2.95;;;29.60;66.50;;;;;;5058930;28;20057;-84
2022/08/03 12:38:20;;;;;;;17.60;3.63;;;29.70;65.70;;;;;;5041669;28;20035;-84
2022/08/03 12:40:55;;;;;;;13.38;2.90;;;29.80;63.80;;;;;;5041590;28;20072;-85
2022/08/03 12:43:20;;;;;;;16.13;3.10;;;29.70;62.60;;;;;;5059388;28;20036;-84
2022/08/03 12:45:46;;;;;;;14.98;3.13;;;29.80;63.00;;;;;;5067641;28;20582;-84
2022/08/03 12:48:12;;;;;;;15.95;3.60;;;29.70;60.70;;;;;;5070140;28;20073;-84
2022/08/03 12:50:38;;;;;;;16.23;3.42;;;29.80;64.20;;;;;;5069955;28;20044;-84
2022/08/03 12:53:07;;;;;;;16.88;3.17;;;29.90;62.10;;;;;;5069779;28;20052;-84
2022/08/03 12:55:33;;;;;;;18.52;3.70;;;30.00;60.40;;;;;;5070188;28;20395;-84